createdAt,value
2022-10-02T00:03:17.467Z,2.53
2022-10-02T00:13:25.386Z,3.05
2022-10-02T00:23:26.564Z,2.75
2022-10-02T00:33:31.821Z,2.00
2022-10-02T00:43:42.158Z,2.67
2022-10-02T00:53:46.450Z,2.05
2022-10-02T01:03:54.451Z,2.13
2022-10-02T01:13:55.776Z,2.70
2022-10-02T01:23:59.120Z,2.20
2022-10-02T01:34:00.652Z,2.63
2022-10-02T01:44:01.818Z,2.33
2022-10-02T01:54:06.127Z,3.13
2022-10-02T02:04:12.336Z,2.95
2022-10-02T02:14:15.449Z,3.35
2022-10-02T02:24:24.681Z,2.35
2022-10-02T02:34:31.386Z,2.78
2022-10-02T02:44:33.778Z,2.33
2022-10-02T02:54:36.807Z,2.35
2022-10-02T03:04:38.044Z,3.15
2022-10-02T03:14:45.606Z,2.05
2022-10-02T03:24:49.124Z,2.70
2022-10-02T03:34:50.307Z,2.65
2022-10-02T03:44:51.460Z,3.00
2022-10-02T03:54:56.381Z,2.55
2022-10-02T04:05:08.163Z,2.45
2022-10-02T04:15:28.619Z,3.40
2022-10-02T04:25:30.565Z,3.38
2022-10-02T04:35:31.731Z,3.38
2022-10-02T04:45:40.943Z,2.90
2022-10-02T04:55:54.112Z,2.33
2022-10-02T05:06:01.557Z,2.95
2022-10-02T05:16:08.834Z,2.58
2022-10-02T05:26:19.335Z,3.15
2022-10-02T05:36:20.530Z,2.35
2022-10-02T05:46:23.125Z,3.05
2022-10-02T05:56:33.567Z,2.75
2022-10-02T06:06:47.968Z,2.80
2022-10-02T06:17:09.717Z,2.75
2022-10-02T06:27:13.455Z,2.78
2022-10-02T06:37:33.559Z,3.45
2022-10-02T06:47:41.061Z,2.28
2022-10-02T06:57:54.085Z,1.85
2022-10-02T07:07:59.747Z,2.35
2022-10-02T07:18:00.900Z,1.63
2022-10-02T07:28:05.837Z,1.50
2022-10-02T07:38:13.206Z,1.55
2022-10-02T07:48:22.509Z,1.60
2022-10-02T07:58:31.475Z,1.40
2022-10-02T08:08:38.758Z,1.55
2022-10-02T08:18:40.940Z,2.40
2022-10-02T08:28:53.542Z,1.52
2022-10-02T08:38:58.923Z,0.95
2022-10-02T08:49:06.500Z,1.52
2022-10-02T08:59:07.666Z,1.17
2022-10-02T09:09:21.171Z,1.80
2022-10-02T09:19:31.444Z,1.67
2022-10-02T09:29:51.872Z,2.08
2022-10-02T09:40:01.602Z,1.25
2022-10-02T09:50:12.122Z,1.23
2022-10-02T10:00:26.875Z,2.20
2022-10-02T10:10:36.611Z,2.30
2022-10-02T10:20:45.105Z,1.73
2022-10-02T10:30:55.964Z,1.50
2022-10-02T10:40:57.223Z,1.23
2022-10-02T10:51:19.470Z,1.20
2022-10-02T11:01:21.375Z,1.40
2022-10-02T11:11:22.565Z,1.25
2022-10-02T11:21:38.383Z,1.60
2022-10-02T11:31:47.275Z,1.40
2022-10-02T11:51:58.905Z,0.95
2022-10-02T12:02:04.536Z,1.15
2022-10-02T12:12:27.729Z,1.40
2022-10-02T12:22:53.048Z,0.93
2022-10-02T12:32:54.251Z,1.17
2022-10-02T12:43:10.429Z,1.20
2022-10-02T12:53:11.568Z,1.67
2022-10-02T13:03:21.066Z,1.95
2022-10-02T13:13:27.634Z,1.67
2022-10-02T13:23:31.936Z,1.10
2022-10-02T13:33:36.345Z,1.13
2022-10-02T13:43:42.242Z,1.23
2022-10-02T13:53:55.487Z,1.85
2022-10-02T14:04:03.220Z,1.50
2022-10-02T14:14:04.974Z,1.90
2022-10-02T14:24:45.122Z,1.88
2022-10-02T14:44:50.236Z,2.40
2022-10-02T14:55:10.072Z,1.95
2022-10-02T15:05:26.674Z,1.55
2022-10-02T15:15:33.185Z,1.38
2022-10-02T15:25:53.286Z,2.40
2022-10-02T15:35:54.520Z,1.80
2022-10-02T15:46:14.490Z,2.42
2022-10-02T15:56:35.080Z,2.35
2022-10-02T16:06:36.661Z,2.17
2022-10-02T16:16:40.090Z,2.83
2022-10-02T16:26:53.771Z,2.42
2022-10-02T16:37:02.570Z,3.72
2022-10-02T16:47:08.581Z,2.35
2022-10-02T16:57:25.189Z,2.85
2022-10-02T17:07:29.854Z,2.50
2022-10-02T17:17:35.272Z,3.72
2022-10-02T17:27:41.753Z,4.95
2022-10-02T17:37:59.126Z,4.03
2022-10-02T17:48:03.306Z,4.93
2022-10-02T17:58:12.954Z,4.15
2022-10-02T18:08:25.524Z,5.68
2022-10-02T18:18:29.833Z,6.40
2022-10-02T18:28:46.991Z,6.30
2022-10-02T18:38:58.555Z,6.45
2022-10-02T18:49:02.723Z,5.57
2022-10-02T18:59:18.304Z,8.85
2022-10-02T19:09:28.993Z,5.78
2022-10-02T19:19:30.230Z,4.32
2022-10-02T19:29:38.066Z,2.75
2022-10-02T19:39:41.159Z,3.35
2022-10-02T19:49:42.585Z,2.65
2022-10-02T19:59:47.639Z,4.10
2022-10-02T20:09:51.010Z,5.25
2022-10-02T20:19:53.523Z,5.60
2022-10-02T20:29:56.389Z,4.53
2022-10-02T20:40:02.303Z,4.53
2022-10-02T20:50:22.783Z,4.13
2022-10-02T21:00:24.962Z,6.78
2022-10-02T21:10:44.961Z,6.57
2022-10-02T21:20:51.802Z,7.68
2022-10-02T21:30:59.347Z,7.18
2022-10-02T21:41:19.505Z,3.85
2022-10-02T21:51:31.311Z,3.28
2022-10-02T22:02:07.259Z,2.80
2022-10-02T22:12:18.389Z,4.80
2022-10-02T22:22:46.114Z,5.13
2022-10-02T22:33:11.647Z,3.63
2022-10-02T22:43:17.763Z,3.58
2022-10-02T22:53:33.293Z,3.03
2022-10-02T23:03:52.018Z,3.80
2022-10-02T23:13:57.794Z,3.13
2022-10-02T23:24:15.577Z,2.97
2022-10-02T23:34:16.812Z,2.17
2022-10-02T23:44:24.151Z,2.05
2022-10-02T23:54:28.323Z,2.08
